sensor_id;sensor_type;location;lat;lon;timestamp;temperature;humidity
15111;DHT22;7656;51.954;7.998;2024-02-21T00:01:37;9.50;99.90
15111;DHT22;7656;51.954;7.998;2024-02-21T00:05:58;9.30;99.90
15111;DHT22;7656;51.954;7.998;2024-02-21T00:10:19;9.20;99.90
15111;DHT22;7656;51.954;7.998;2024-02-21T00:14:41;9.30;99.90
15111;DHT22;7656;51.954;7.998;2024-02-21T00:19:02;9.20;99.90
15111;DHT22;7656;51.954;7.998;2024-02-21T00:23:23;9.20;99.90
15111;DHT22;7656;51.954;7.998;2024-02-21T00:27:44;9.30;99.90
15111;DHT22;7656;51.954;7.998;2024-02-21T00:32:05;9.30;99.90
15111;DHT22;7656;51.954;7.998;2024-02-21T00:36:27;9.20;99.90
15111;DHT22;7656;51.954;7.998;2024-02-21T00:40:48;9.30;99.90
15111;DHT22;7656;51.954;7.998;2024-02-21T00:45:09;9.30;99.90
15111;DHT22;7656;51.954;7.998;2024-02-21T00:49:30;9.60;99.90
15111;DHT22;7656;51.954;7.998;2024-02-21T00:53:51;9.60;99.90
15111;DHT22;7656;51.954;7.998;2024-02-21T00:58:12;9.50;99.90
15111;DHT22;7656;51.954;7.998;2024-02-21T01:02:34;9.40;99.90
15111;DHT22;7656;51.954;7.998;2024-02-21T01:06:55;9.50;99.90
15111;DHT22;7656;51.954;7.998;2024-02-21T01:11:16;9.60;99.90
15111;DHT22;7656;51.954;7.998;2024-02-21T01:15:38;9.70;99.90
15111;DHT22;7656;51.954;7.998;2024-02-21T01:19:59;9.60;99.90
15111;DHT22;7656;51.954;7.998;2024-02-21T01:24:20;9.50;99.90
15111;DHT22;7656;51.954;7.998;2024-02-21T01:28:41;9.60;99.90
15111;DHT22;7656;51.954;7.998;2024-02-21T01:33:03;9.50;99.90
15111;DHT22;7656;51.954;7.998;2024-02-21T01:37:24;9.60;99.90
15111;DHT22;7656;51.954;7.998;2024-02-21T01:41:45;9.70;99.90
15111;DHT22;7656;51.954;7.998;2024-02-21T01:46:07;9.70;99.90
15111;DHT22;7656;51.954;7.998;2024-02-21T01:50:29;9.60;99.90
15111;DHT22;7656;51.954;7.998;2024-02-21T01:54:50;9.50;99.90
15111;DHT22;7656;51.954;7.998;2024-02-21T01:59:11;9.50;99.90
15111;DHT22;7656;51.954;7.998;2024-02-21T02:03:33;9.50;99.90
15111;DHT22;7656;51.954;7.998;2024-02-21T02:07:54;9.60;99.90
15111;DHT22;7656;51.954;7.998;2024-02-21T02:12:15;9.60;99.90
15111;DHT22;7656;51.954;7.998;2024-02-21T02:16:36;9.40;99.90
15111;DHT22;7656;51.954;7.998;2024-02-21T02:20:57;9.50;99.90
15111;DHT22;7656;51.954;7.998;2024-02-21T02:25:19;9.40;99.90
15111;DHT22;7656;51.954;7.998;2024-02-21T02:29:40;9.50;99.90
15111;DHT22;7656;51.954;7.998;2024-02-21T02:34:01;9.60;99.90
15111;DHT22;7656;51.954;7.998;2024-02-21T02:38:22;9.80;99.90
15111;DHT22;7656;51.954;7.998;2024-02-21T02:42:43;9.70;99.90
15111;DHT22;7656;51.954;7.998;2024-02-21T02:47:04;9.60;99.90
15111;DHT22;7656;51.954;7.998;2024-02-21T02:51:25;9.50;99.90
15111;DHT22;7656;51.954;7.998;2024-02-21T02:55:46;9.60;99.90
15111;DHT22;7656;51.954;7.998;2024-02-21T03:00:08;9.50;99.90
15111;DHT22;7656;51.954;7.998;2024-02-21T03:04:31;9.60;99.90
15111;DHT22;7656;51.954;7.998;2024-02-21T03:08:52;9.60;99.90
15111;DHT22;7656;51.954;7.998;2024-02-21T03:13:15;9.50;99.90
15111;DHT22;7656;51.954;7.998;2024-02-21T03:17:36;9.40;99.90
15111;DHT22;7656;51.954;7.998;2024-02-21T03:21:57;9.60;99.90
15111;DHT22;7656;51.954;7.998;2024-02-21T03:26:18;9.90;99.90
15111;DHT22;7656;51.954;7.998;2024-02-21T03:30:39;9.60;99.90
15111;DHT22;7656;51.954;7.998;2024-02-21T03:35:00;9.50;99.90
15111;DHT22;7656;51.954;7.998;2024-02-21T03:39:22;9.50;99.90
15111;DHT22;7656;51.954;7.998;2024-02-21T03:43:43;9.50;99.90
15111;DHT22;7656;51.954;7.998;2024-02-21T03:48:04;9.50;99.90
15111;DHT22;7656;51.954;7.998;2024-02-21T03:52:25;9.60;99.90
15111;DHT22;7656;51.954;7.998;2024-02-21T03:56:47;9.60;99.90
15111;DHT22;7656;51.954;7.998;2024-02-21T04:01:11;9.60;99.90
15111;DHT22;7656;51.954;7.998;2024-02-21T04:05:33;9.80;99.90
15111;DHT22;7656;51.954;7.998;2024-02-21T04:09:54;9.80;99.90
15111;DHT22;7656;51.954;7.998;2024-02-21T04:14:15;9.80;99.90
15111;DHT22;7656;51.954;7.998;2024-02-21T04:18:36;9.60;99.90
15111;DHT22;7656;51.954;7.998;2024-02-21T04:22:57;9.70;99.90
15111;DHT22;7656;51.954;7.998;2024-02-21T04:27:18;9.70;99.90
15111;DHT22;7656;51.954;7.998;2024-02-21T04:31:39;9.80;99.90
15111;DHT22;7656;51.954;7.998;2024-02-21T04:36:00;9.50;99.90
15111;DHT22;7656;51.954;7.998;2024-02-21T04:40:22;9.50;99.90
15111;DHT22;7656;51.954;7.998;2024-02-21T04:44:44;9.50;99.90
15111;DHT22;7656;51.954;7.998;2024-02-21T04:49:05;9.60;99.90
15111;DHT22;7656;51.954;7.998;2024-02-21T04:53:26;9.70;99.90
15111;DHT22;7656;51.954;7.998;2024-02-21T04:57:47;9.50;99.90
15111;DHT22;7656;51.954;7.998;2024-02-21T05:02:08;9.50;99.90
15111;DHT22;7656;51.954;7.998;2024-02-21T05:06:29;9.50;99.90
15111;DHT22;7656;51.954;7.998;2024-02-21T05:10:50;9.40;99.90
15111;DHT22;7656;51.954;7.998;2024-02-21T05:15:11;9.40;99.90
15111;DHT22;7656;51.954;7.998;2024-02-21T05:19:32;9.40;99.90
15111;DHT22;7656;51.954;7.998;2024-02-21T05:23:53;9.50;99.90
15111;DHT22;7656;51.954;7.998;2024-02-21T05:28:15;9.60;99.90
15111;DHT22;7656;51.954;7.998;2024-02-21T05:32:36;9.40;99.90
15111;DHT22;7656;51.954;7.998;2024-02-21T05:36:57;9.40;99.90
15111;DHT22;7656;51.954;7.998;2024-02-21T05:41:20;9.60;99.90
15111;DHT22;7656;51.954;7.998;2024-02-21T05:45:41;9.50;99.90
15111;DHT22;7656;51.954;7.998;2024-02-21T05:50:02;9.50;99.90
15111;DHT22;7656;51.954;7.998;2024-02-21T05:54:23;9.60;99.90
15111;DHT22;7656;51.954;7.998;2024-02-21T05:58:45;9.70;99.90
15111;DHT22;7656;51.954;7.998;2024-02-21T06:03:06;9.50;99.90
15111;DHT22;7656;51.954;7.998;2024-02-21T06:07:27;9.40;99.90
15111;DHT22;7656;51.954;7.998;2024-02-21T06:11:49;9.40;99.90
15111;DHT22;7656;51.954;7.998;2024-02-21T06:16:10;9.20;99.90
15111;DHT22;7656;51.954;7.998;2024-02-21T06:20:31;9.30;99.90
15111;DHT22;7656;51.954;7.998;2024-02-21T06:24:52;9.40;99.90
15111;DHT22;7656;51.954;7.998;2024-02-21T06:29:15;9.50;99.90
15111;DHT22;7656;51.954;7.998;2024-02-21T06:33:36;9.60;99.90
15111;DHT22;7656;51.954;7.998;2024-02-21T06:37:57;9.80;99.90
15111;DHT22;7656;51.954;7.998;2024-02-21T06:42:18;9.70;99.90
15111;DHT22;7656;51.954;7.998;2024-02-21T06:46:39;9.60;99.90
15111;DHT22;7656;51.954;7.998;2024-02-21T06:51:00;9.70;99.90
15111;DHT22;7656;51.954;7.998;2024-02-21T06:55:21;9.80;99.90
15111;DHT22;7656;51.954;7.998;2024-02-21T06:59:42;9.90;99.90
15111;DHT22;7656;51.954;7.998;2024-02-21T07:04:03;9.80;99.90
15111;DHT22;7656;51.954;7.998;2024-02-21T07:08:24;9.90;99.90
15111;DHT22;7656;51.954;7.998;2024-02-21T07:12:45;9.80;99.90
15111;DHT22;7656;51.954;7.998;2024-02-21T07:17:06;9.90;99.90
15111;DHT22;7656;51.954;7.998;2024-02-21T07:21:28;9.80;99.90
15111;DHT22;7656;51.954;7.998;2024-02-21T07:25:49;10.00;99.90
15111;DHT22;7656;51.954;7.998;2024-02-21T07:30:10;9.90;99.90
15111;DHT22;7656;51.954;7.998;2024-02-21T07:34:31;10.10;99.90
15111;DHT22;7656;51.954;7.998;2024-02-21T07:38:52;10.10;99.90
15111;DHT22;7656;51.954;7.998;2024-02-21T07:43:13;9.90;99.90
15111;DHT22;7656;51.954;7.998;2024-02-21T07:47:35;9.90;99.90
15111;DHT22;7656;51.954;7.998;2024-02-21T07:51:56;10.10;99.90
15111;DHT22;7656;51.954;7.998;2024-02-21T07:56:17;10.00;99.90
15111;DHT22;7656;51.954;7.998;2024-02-21T08:00:38;10.10;99.90
15111;DHT22;7656;51.954;7.998;2024-02-21T08:04:59;10.20;99.90
15111;DHT22;7656;51.954;7.998;2024-02-21T08:09:20;10.40;99.90
15111;DHT22;7656;51.954;7.998;2024-02-21T08:13:41;10.60;99.90
15111;DHT22;7656;51.954;7.998;2024-02-21T08:18:02;11.00;99.90
15111;DHT22;7656;51.954;7.998;2024-02-21T08:22:24;12.20;99.90
15111;DHT22;7656;51.954;7.998;2024-02-21T08:26:45;12.50;99.90
15111;DHT22;7656;51.954;7.998;2024-02-21T08:31:06;12.70;99.90
15111;DHT22;7656;51.954;7.998;2024-02-21T08:35:27;12.90;99.90
15111;DHT22;7656;51.954;7.998;2024-02-21T08:39:48;12.60;99.90
15111;DHT22;7656;51.954;7.998;2024-02-21T08:44:10;12.20;99.90
15111;DHT22;7656;51.954;7.998;2024-02-21T08:48:32;12.10;99.90
15111;DHT22;7656;51.954;7.998;2024-02-21T08:52:53;12.10;99.90
15111;DHT22;7656;51.954;7.998;2024-02-21T08:57:15;12.40;99.90
15111;DHT22;7656;51.954;7.998;2024-02-21T09:01:36;12.50;99.90
15111;DHT22;7656;51.954;7.998;2024-02-21T09:05:58;13.00;99.90
15111;DHT22;7656;51.954;7.998;2024-02-21T09:10:20;12.80;99.90
15111;DHT22;7656;51.954;7.998;2024-02-21T09:14:42;12.40;99.90
15111;DHT22;7656;51.954;7.998;2024-02-21T09:19:03;12.30;99.90
15111;DHT22;7656;51.954;7.998;2024-02-21T09:23:24;12.30;99.90
15111;DHT22;7656;51.954;7.998;2024-02-21T09:27:45;12.10;99.90
15111;DHT22;7656;51.954;7.998;2024-02-21T09:32:06;11.90;99.90
15111;DHT22;7656;51.954;7.998;2024-02-21T09:36:27;12.00;99.90
15111;DHT22;7656;51.954;7.998;2024-02-21T09:40:58;12.10;99.90
15111;DHT22;7656;51.954;7.998;2024-02-21T09:45:23;12.70;99.90
15111;DHT22;7656;51.954;7.998;2024-02-21T09:49:45;12.10;99.90
15111;DHT22;7656;51.954;7.998;2024-02-21T09:54:07;11.70;99.90
15111;DHT22;7656;51.954;7.998;2024-02-21T09:58:28;11.80;99.90
15111;DHT22;7656;51.954;7.998;2024-02-21T10:02:50;11.80;99.90
15111;DHT22;7656;51.954;7.998;2024-02-21T10:07:11;11.70;99.90
15111;DHT22;7656;51.954;7.998;2024-02-21T10:11:33;11.70;99.90
15111;DHT22;7656;51.954;7.998;2024-02-21T10:16:15;11.40;99.90
15111;DHT22;7656;51.954;7.998;2024-02-21T10:20:36;11.50;99.90
15111;DHT22;7656;51.954;7.998;2024-02-21T10:25:09;11.50;99.90
15111;DHT22;7656;51.954;7.998;2024-02-21T10:29:31;11.30;99.90
15111;DHT22;7656;51.954;7.998;2024-02-21T10:34:00;11.20;99.90
15111;DHT22;7656;51.954;7.998;2024-02-21T10:38:24;11.10;99.90
15111;DHT22;7656;51.954;7.998;2024-02-21T10:42:46;11.00;99.90
15111;DHT22;7656;51.954;7.998;2024-02-21T10:47:12;10.90;99.90
15111;DHT22;7656;51.954;7.998;2024-02-21T10:51:43;11.30;99.90
15111;DHT22;7656;51.954;7.998;2024-02-21T10:56:31;11.40;99.90
15111;DHT22;7656;51.954;7.998;2024-02-21T11:00:56;11.30;99.90
15111;DHT22;7656;51.954;7.998;2024-02-21T11:05:17;11.40;99.90
15111;DHT22;7656;51.954;7.998;2024-02-21T11:09:39;11.30;99.90
15111;DHT22;7656;51.954;7.998;2024-02-21T11:14:07;11.30;99.90
15111;DHT22;7656;51.954;7.998;2024-02-21T11:18:29;11.00;99.90
15111;DHT22;7656;51.954;7.998;2024-02-21T11:22:50;10.90;99.90
15111;DHT22;7656;51.954;7.998;2024-02-21T11:27:15;10.90;99.90
15111;DHT22;7656;51.954;7.998;2024-02-21T11:31:41;10.80;99.90
15111;DHT22;7656;51.954;7.998;2024-02-21T11:36:03;10.40;99.90
15111;DHT22;7656;51.954;7.998;2024-02-21T11:40:25;10.50;99.90
15111;DHT22;7656;51.954;7.998;2024-02-21T11:44:46;10.30;99.90
15111;DHT22;7656;51.954;7.998;2024-02-21T11:49:07;10.00;99.90
15111;DHT22;7656;51.954;7.998;2024-02-21T11:53:29;10.30;99.90
15111;DHT22;7656;51.954;7.998;2024-02-21T11:57:51;10.40;99.90
15111;DHT22;7656;51.954;7.998;2024-02-21T12:02:14;10.60;99.90
15111;DHT22;7656;51.954;7.998;2024-02-21T12:06:35;10.60;99.90
15111;DHT22;7656;51.954;7.998;2024-02-21T12:10:56;10.70;99.90
15111;DHT22;7656;51.954;7.998;2024-02-21T12:15:18;10.70;99.90
15111;DHT22;7656;51.954;7.998;2024-02-21T12:19:39;10.60;99.90
15111;DHT22;7656;51.954;7.998;2024-02-21T12:24:00;10.40;99.90
15111;DHT22;7656;51.954;7.998;2024-02-21T12:28:21;10.50;99.90
15111;DHT22;7656;51.954;7.998;2024-02-21T12:32:42;10.30;99.90
15111;DHT22;7656;51.954;7.998;2024-02-21T12:37:04;10.40;99.90
15111;DHT22;7656;51.954;7.998;2024-02-21T12:41:25;10.20;99.90
15111;DHT22;7656;51.954;7.998;2024-02-21T12:45:49;10.10;99.90
15111;DHT22;7656;51.954;7.998;2024-02-21T12:50:10;10.20;99.90
15111;DHT22;7656;51.954;7.998;2024-02-21T12:54:31;10.60;99.90
15111;DHT22;7656;51.954;7.998;2024-02-21T12:58:53;10.50;99.90
15111;DHT22;7656;51.954;7.998;2024-02-21T13:03:14;10.30;99.90
15111;DHT22;7656;51.954;7.998;2024-02-21T13:07:35;10.50;99.90
15111;DHT22;7656;51.954;7.998;2024-02-21T13:11:56;10.90;99.90
15111;DHT22;7656;51.954;7.998;2024-02-21T13:16:17;10.60;99.90
15111;DHT22;7656;51.954;7.998;2024-02-21T13:20:39;10.60;99.90
15111;DHT22;7656;51.954;7.998;2024-02-21T13:25:00;10.20;99.90
15111;DHT22;7656;51.954;7.998;2024-02-21T13:29:21;10.00;99.90
15111;DHT22;7656;51.954;7.998;2024-02-21T13:33:43;10.10;99.90
15111;DHT22;7656;51.954;7.998;2024-02-21T13:38:05;10.00;99.90
15111;DHT22;7656;51.954;7.998;2024-02-21T13:42:26;10.10;99.90
15111;DHT22;7656;51.954;7.998;2024-02-21T13:46:48;10.60;99.90
15111;DHT22;7656;51.954;7.998;2024-02-21T13:51:09;10.50;99.90
15111;DHT22;7656;51.954;7.998;2024-02-21T13:55:32;10.40;99.90
15111;DHT22;7656;51.954;7.998;2024-02-21T13:59:53;10.60;99.90
15111;DHT22;7656;51.954;7.998;2024-02-21T14:04:14;11.20;99.90
15111;DHT22;7656;51.954;7.998;2024-02-21T14:08:35;10.60;99.90
15111;DHT22;7656;51.954;7.998;2024-02-21T14:12:57;10.60;99.90
15111;DHT22;7656;51.954;7.998;2024-02-21T14:17:19;10.70;99.90
15111;DHT22;7656;51.954;7.998;2024-02-21T14:21:42;10.80;99.90
15111;DHT22;7656;51.954;7.998;2024-02-21T14:26:04;11.00;99.90
15111;DHT22;7656;51.954;7.998;2024-02-21T14:30:25;11.40;99.90
15111;DHT22;7656;51.954;7.998;2024-02-21T14:34:47;10.90;99.90
15111;DHT22;7656;51.954;7.998;2024-02-21T14:39:08;10.70;99.90
15111;DHT22;7656;51.954;7.998;2024-02-21T14:43:29;10.50;99.90
15111;DHT22;7656;51.954;7.998;2024-02-21T14:47:50;10.20;99.90
15111;DHT22;7656;51.954;7.998;2024-02-21T14:52:11;10.20;99.90
15111;DHT22;7656;51.954;7.998;2024-02-21T14:56:32;10.20;99.90
15111;DHT22;7656;51.954;7.998;2024-02-21T15:00:53;10.20;99.90
15111;DHT22;7656;51.954;7.998;2024-02-21T15:05:15;10.40;99.90
15111;DHT22;7656;51.954;7.998;2024-02-21T15:09:36;10.60;99.90
15111;DHT22;7656;51.954;7.998;2024-02-21T15:13:57;10.50;99.90
15111;DHT22;7656;51.954;7.998;2024-02-21T15:18:18;10.50;99.90
15111;DHT22;7656;51.954;7.998;2024-02-21T15:22:39;10.50;99.90
15111;DHT22;7656;51.954;7.998;2024-02-21T15:27:00;10.40;99.90
15111;DHT22;7656;51.954;7.998;2024-02-21T15:31:22;10.30;99.90
15111;DHT22;7656;51.954;7.998;2024-02-21T15:35:43;10.30;99.90
15111;DHT22;7656;51.954;7.998;2024-02-21T15:40:05;10.30;99.90
15111;DHT22;7656;51.954;7.998;2024-02-21T15:44:28;10.20;99.90
15111;DHT22;7656;51.954;7.998;2024-02-21T15:48:49;10.20;99.90
15111;DHT22;7656;51.954;7.998;2024-02-21T15:53:14;10.20;99.90
15111;DHT22;7656;51.954;7.998;2024-02-21T15:57:35;10.10;99.90
15111;DHT22;7656;51.954;7.998;2024-02-21T16:01:56;10.10;99.90
15111;DHT22;7656;51.954;7.998;2024-02-21T16:06:17;10.20;99.90
15111;DHT22;7656;51.954;7.998;2024-02-21T16:10:39;10.10;99.90
15111;DHT22;7656;51.954;7.998;2024-02-21T16:15:00;10.10;99.90
15111;DHT22;7656;51.954;7.998;2024-02-21T16:19:21;10.10;99.90
15111;DHT22;7656;51.954;7.998;2024-02-21T16:23:42;10.10;99.90
15111;DHT22;7656;51.954;7.998;2024-02-21T16:28:03;10.20;99.90
15111;DHT22;7656;51.954;7.998;2024-02-21T16:32:24;10.10;99.90
15111;DHT22;7656;51.954;7.998;2024-02-21T16:36:48;10.10;99.90
15111;DHT22;7656;51.954;7.998;2024-02-21T16:41:09;10.20;99.90
15111;DHT22;7656;51.954;7.998;2024-02-21T16:45:31;10.20;99.90
15111;DHT22;7656;51.954;7.998;2024-02-21T16:49:52;10.20;99.90
15111;DHT22;7656;51.954;7.998;2024-02-21T16:54:16;10.20;99.90
15111;DHT22;7656;51.954;7.998;2024-02-21T16:58:42;10.20;99.90
15111;DHT22;7656;51.954;7.998;2024-02-21T17:03:03;10.40;99.90
15111;DHT22;7656;51.954;7.998;2024-02-21T17:07:24;10.30;99.90
15111;DHT22;7656;51.954;7.998;2024-02-21T17:11:45;10.30;99.90
15111;DHT22;7656;51.954;7.998;2024-02-21T17:16:06;10.30;99.90
15111;DHT22;7656;51.954;7.998;2024-02-21T17:20:29;10.30;99.90
15111;DHT22;7656;51.954;7.998;2024-02-21T17:24:50;10.30;99.90
15111;DHT22;7656;51.954;7.998;2024-02-21T17:29:12;10.30;99.90
15111;DHT22;7656;51.954;7.998;2024-02-21T17:33:34;10.40;99.90
15111;DHT22;7656;51.954;7.998;2024-02-21T17:37:55;10.50;99.90
15111;DHT22;7656;51.954;7.998;2024-02-21T17:42:16;10.50;99.90
15111;DHT22;7656;51.954;7.998;2024-02-21T17:46:41;10.40;99.90
15111;DHT22;7656;51.954;7.998;2024-02-21T17:51:05;10.10;99.90
15111;DHT22;7656;51.954;7.998;2024-02-21T17:55:26;10.10;99.90
15111;DHT22;7656;51.954;7.998;2024-02-21T17:59:47;9.90;99.90
15111;DHT22;7656;51.954;7.998;2024-02-21T18:04:08;9.80;99.90
15111;DHT22;7656;51.954;7.998;2024-02-21T18:08:29;9.90;99.90
15111;DHT22;7656;51.954;7.998;2024-02-21T18:12:51;9.80;99.90
15111;DHT22;7656;51.954;7.998;2024-02-21T18:17:12;9.80;99.90
15111;DHT22;7656;51.954;7.998;2024-02-21T18:21:35;9.80;99.90
15111;DHT22;7656;51.954;7.998;2024-02-21T18:25:56;9.70;99.90
15111;DHT22;7656;51.954;7.998;2024-02-21T18:30:18;9.80;99.90
15111;DHT22;7656;51.954;7.998;2024-02-21T18:34:39;9.80;99.90
15111;DHT22;7656;51.954;7.998;2024-02-21T18:39:00;9.70;99.90
15111;DHT22;7656;51.954;7.998;2024-02-21T18:43:21;9.70;99.90
15111;DHT22;7656;51.954;7.998;2024-02-21T18:47:43;9.60;99.90
15111;DHT22;7656;51.954;7.998;2024-02-21T18:52:04;9.50;99.90
15111;DHT22;7656;51.954;7.998;2024-02-21T18:56:25;9.50;99.90
15111;DHT22;7656;51.954;7.998;2024-02-21T19:00:49;9.30;99.90
15111;DHT22;7656;51.954;7.998;2024-02-21T19:05:11;9.20;99.90
15111;DHT22;7656;51.954;7.998;2024-02-21T19:09:32;9.10;99.90
15111;DHT22;7656;51.954;7.998;2024-02-21T19:13:53;9.00;99.90
15111;DHT22;7656;51.954;7.998;2024-02-21T19:18:14;9.00;99.90
15111;DHT22;7656;51.954;7.998;2024-02-21T19:22:35;9.00;99.90
15111;DHT22;7656;51.954;7.998;2024-02-21T19:26:57;8.80;99.90
15111;DHT22;7656;51.954;7.998;2024-02-21T19:31:18;8.70;99.90
15111;DHT22;7656;51.954;7.998;2024-02-21T19:35:39;8.70;99.90
15111;DHT22;7656;51.954;7.998;2024-02-21T19:40:00;8.70;99.90
15111;DHT22;7656;51.954;7.998;2024-02-21T19:44:24;8.60;99.90
15111;DHT22;7656;51.954;7.998;2024-02-21T19:48:45;8.50;99.90
15111;DHT22;7656;51.954;7.998;2024-02-21T19:53:06;8.60;99.90
15111;DHT22;7656;51.954;7.998;2024-02-21T19:57:27;8.50;99.90
15111;DHT22;7656;51.954;7.998;2024-02-21T20:01:48;8.60;99.90
15111;DHT22;7656;51.954;7.998;2024-02-21T20:06:11;8.60;99.90
15111;DHT22;7656;51.954;7.998;2024-02-21T20:10:32;8.60;99.90
15111;DHT22;7656;51.954;7.998;2024-02-21T20:14:53;8.70;99.90
15111;DHT22;7656;51.954;7.998;2024-02-21T20:19:14;8.70;99.90
15111;DHT22;7656;51.954;7.998;2024-02-21T20:23:37;8.60;99.90
15111;DHT22;7656;51.954;7.998;2024-02-21T20:27:58;8.60;99.90
15111;DHT22;7656;51.954;7.998;2024-02-21T20:32:19;8.60;99.90
15111;DHT22;7656;51.954;7.998;2024-02-21T20:36:40;8.60;99.90
15111;DHT22;7656;51.954;7.998;2024-02-21T20:41:04;8.50;99.90
15111;DHT22;7656;51.954;7.998;2024-02-21T20:45:25;8.60;99.90
15111;DHT22;7656;51.954;7.998;2024-02-21T20:49:47;8.70;99.90
15111;DHT22;7656;51.954;7.998;2024-02-21T20:54:09;8.60;99.90
15111;DHT22;7656;51.954;7.998;2024-02-21T20:58:31;8.70;99.90
15111;DHT22;7656;51.954;7.998;2024-02-21T21:02:52;8.80;99.90
15111;DHT22;7656;51.954;7.998;2024-02-21T21:07:13;8.80;99.90
15111;DHT22;7656;51.954;7.998;2024-02-21T21:11:37;8.80;99.90
15111;DHT22;7656;51.954;7.998;2024-02-21T21:15:59;9.00;99.90
15111;DHT22;7656;51.954;7.998;2024-02-21T21:20:21;9.00;99.90
15111;DHT22;7656;51.954;7.998;2024-02-21T21:24:46;9.00;99.90
15111;DHT22;7656;51.954;7.998;2024-02-21T21:29:07;9.00;99.90
15111;DHT22;7656;51.954;7.998;2024-02-21T21:33:28;9.00;99.90
15111;DHT22;7656;51.954;7.998;2024-02-21T21:37:49;9.00;99.90
15111;DHT22;7656;51.954;7.998;2024-02-21T21:42:10;8.90;99.90
15111;DHT22;7656;51.954;7.998;2024-02-21T21:46:32;8.80;99.90
15111;DHT22;7656;51.954;7.998;2024-02-21T21:50:53;8.80;99.90
15111;DHT22;7656;51.954;7.998;2024-02-21T21:55:14;8.90;99.90
15111;DHT22;7656;51.954;7.998;2024-02-21T21:59:36;8.90;99.90
15111;DHT22;7656;51.954;7.998;2024-02-21T22:03:57;8.90;99.90
15111;DHT22;7656;51.954;7.998;2024-02-21T22:08:18;9.00;99.90
15111;DHT22;7656;51.954;7.998;2024-02-21T22:12:40;8.80;99.90
15111;DHT22;7656;51.954;7.998;2024-02-21T22:17:01;8.80;99.90
15111;DHT22;7656;51.954;7.998;2024-02-21T22:21:22;8.70;99.90
15111;DHT22;7656;51.954;7.998;2024-02-21T22:25:43;8.60;99.90
15111;DHT22;7656;51.954;7.998;2024-02-21T22:30:08;8.70;99.90
15111;DHT22;7656;51.954;7.998;2024-02-21T22:34:30;8.70;99.90
15111;DHT22;7656;51.954;7.998;2024-02-21T22:38:51;8.70;99.90
15111;DHT22;7656;51.954;7.998;2024-02-21T22:43:12;8.70;99.90
15111;DHT22;7656;51.954;7.998;2024-02-21T22:47:33;8.70;99.90
15111;DHT22;7656;51.954;7.998;2024-02-21T22:51:55;8.80;99.90
15111;DHT22;7656;51.954;7.998;2024-02-21T22:56:18;8.80;99.90
15111;DHT22;7656;51.954;7.998;2024-02-21T23:00:39;8.80;99.90
15111;DHT22;7656;51.954;7.998;2024-02-21T23:05:00;8.70;99.90
15111;DHT22;7656;51.954;7.998;2024-02-21T23:09:25;8.80;99.90
15111;DHT22;7656;51.954;7.998;2024-02-21T23:13:46;8.70;99.90
15111;DHT22;7656;51.954;7.998;2024-02-21T23:18:07;8.60;99.90
15111;DHT22;7656;51.954;7.998;2024-02-21T23:22:28;8.50;99.90
15111;DHT22;7656;51.954;7.998;2024-02-21T23:26:49;8.50;99.90
15111;DHT22;7656;51.954;7.998;2024-02-21T23:31:12;8.50;99.90
15111;DHT22;7656;51.954;7.998;2024-02-21T23:35:34;8.50;99.90
15111;DHT22;7656;51.954;7.998;2024-02-21T23:39:55;8.50;99.90
15111;DHT22;7656;51.954;7.998;2024-02-21T23:44:16;8.60;99.90
15111;DHT22;7656;51.954;7.998;2024-02-21T23:48:38;8.60;99.90
15111;DHT22;7656;51.954;7.998;2024-02-21T23:53:00;8.50;99.90
15111;DHT22;7656;51.954;7.998;2024-02-21T23:57:21;8.50;99.90
